sensor_id;sensor_type;location;lat;lon;timestamp;pressure;altitude;pressure_sealevel;temperature;humidity
38780;BME280;29273;49.962;9.768;2023-03-11T00:00:34;98472.03;;;6.75;49.55
38780;BME280;29273;49.962;9.768;2023-03-11T00:03:04;98448.38;;;6.69;48.66
38780;BME280;29273;49.962;9.768;2023-03-11T00:05:39;98455.44;;;6.75;49.49
38780;BME280;29273;49.962;9.768;2023-03-11T00:08:06;98443.09;;;6.69;48.50
38780;BME280;29273;49.962;9.768;2023-03-11T00:10:35;98437.63;;;6.70;48.24
38780;BME280;29273;49.962;9.768;2023-03-11T00:13:02;98443.53;;;6.65;48.22
38780;BME280;29273;49.962;9.768;2023-03-11T00:15:28;98458.50;;;6.65;48.17
38780;BME280;29273;49.962;9.768;2023-03-11T00:17:54;98467.19;;;6.65;48.83
38780;BME280;29273;49.962;9.768;2023-03-11T00:20:26;98485.41;;;6.67;48.67
38780;BME280;29273;49.962;9.768;2023-03-11T00:22:52;98473.91;;;6.61;48.05
38780;BME280;29273;49.962;9.768;2023-03-11T00:25:19;98490.50;;;6.62;47.92
38780;BME280;29273;49.962;9.768;2023-03-11T00:27:44;98501.81;;;6.62;48.63
38780;BME280;29273;49.962;9.768;2023-03-11T00:30:11;98495.53;;;6.63;48.58
38780;BME280;29273;49.962;9.768;2023-03-11T00:32:37;98491.09;;;6.64;48.85
38780;BME280;29273;49.962;9.768;2023-03-11T00:35:03;98502.03;;;6.61;48.77
38780;BME280;29273;49.962;9.768;2023-03-11T00:37:29;98502.84;;;6.61;48.31
38780;BME280;29273;49.962;9.768;2023-03-11T00:39:54;98503.06;;;6.60;48.19
38780;BME280;29273;49.962;9.768;2023-03-11T00:42:20;98508.31;;;6.60;48.27
38780;BME280;29273;49.962;9.768;2023-03-11T00:44:45;98513.56;;;6.60;48.40
38780;BME280;29273;49.962;9.768;2023-03-11T00:47:11;98512.53;;;6.61;48.55
38780;BME280;29273;49.962;9.768;2023-03-11T00:49:37;98525.31;;;6.57;47.93
38780;BME280;29273;49.962;9.768;2023-03-11T00:52:03;98518.84;;;6.60;48.28
38780;BME280;29273;49.962;9.768;2023-03-11T00:54:28;98527.72;;;6.59;48.16
38780;BME280;29273;49.962;9.768;2023-03-11T00:56:54;98537.25;;;6.60;48.42
38780;BME280;29273;49.962;9.768;2023-03-11T00:59:20;98535.81;;;6.57;48.06
38780;BME280;29273;49.962;9.768;2023-03-11T01:01:45;98546.34;;;6.57;48.35
38780;BME280;29273;49.962;9.768;2023-03-11T01:04:11;98535.81;;;6.57;48.39
38780;BME280;29273;49.962;9.768;2023-03-11T01:06:37;98544.31;;;6.59;48.44
38780;BME280;29273;49.962;9.768;2023-03-11T01:09:02;98541.91;;;6.58;49.21
38780;BME280;29273;49.962;9.768;2023-03-11T01:11:29;98533.19;;;6.57;48.88
38780;BME280;29273;49.962;9.768;2023-03-11T01:13:54;98543.72;;;6.57;49.28
38780;BME280;29273;49.962;9.768;2023-03-11T01:16:20;98536.84;;;6.56;48.84
38780;BME280;29273;49.962;9.768;2023-03-11T01:18:47;98536.41;;;6.59;48.88
38780;BME280;29273;49.962;9.768;2023-03-11T01:21:12;98555.28;;;6.56;48.78
38780;BME280;29273;49.962;9.768;2023-03-11T01:23:39;98562.13;;;6.57;48.92
38780;BME280;29273;49.962;9.768;2023-03-11T01:26:05;98560.31;;;6.51;48.59
38780;BME280;29273;49.962;9.768;2023-03-11T01:28:30;98567.78;;;6.54;48.45
38780;BME280;29273;49.962;9.768;2023-03-11T01:30:57;98573.91;;;6.48;48.90
38780;BME280;29273;49.962;9.768;2023-03-11T01:33:23;98583.97;;;6.51;48.64
38780;BME280;29273;49.962;9.768;2023-03-11T01:35:48;98579.16;;;6.48;49.23
38780;BME280;29273;49.962;9.768;2023-03-11T01:38:14;98582.78;;;6.47;48.84
38780;BME280;29273;49.962;9.768;2023-03-11T01:40:46;98582.19;;;6.52;48.58
38780;BME280;29273;49.962;9.768;2023-03-11T01:43:46;98583.38;;;6.49;49.27
38780;BME280;29273;49.962;9.768;2023-03-11T01:46:27;98588.44;;;6.51;49.67
38780;BME280;29273;49.962;9.768;2023-03-11T01:48:57;98586.44;;;6.46;48.93
38780;BME280;29273;49.962;9.768;2023-03-11T01:51:31;98581.78;;;6.48;48.96
38780;BME280;29273;49.962;9.768;2023-03-11T01:54:00;98588.06;;;6.40;49.11
38780;BME280;29273;49.962;9.768;2023-03-11T01:56:27;98585.63;;;6.39;49.34
38780;BME280;29273;49.962;9.768;2023-03-11T01:58:53;98585.63;;;6.39;49.07
38780;BME280;29273;49.962;9.768;2023-03-11T02:01:21;98582.00;;;6.33;48.36
38780;BME280;29273;49.962;9.768;2023-03-11T02:03:47;98584.44;;;6.35;48.96
38780;BME280;29273;49.962;9.768;2023-03-11T02:06:17;98592.53;;;6.40;49.68
38780;BME280;29273;49.962;9.768;2023-03-11T02:08:44;98582.59;;;6.35;49.25
38780;BME280;29273;49.962;9.768;2023-03-11T02:11:15;98591.69;;;6.33;49.18
38780;BME280;29273;49.962;9.768;2023-03-11T02:13:44;98588.28;;;6.32;49.54
38780;BME280;29273;49.962;9.768;2023-03-11T02:16:10;98603.44;;;6.30;49.21
38780;BME280;29273;49.962;9.768;2023-03-11T02:18:36;98593.94;;;6.29;49.31
38780;BME280;29273;49.962;9.768;2023-03-11T02:21:09;98586.44;;;6.33;49.30
38780;BME280;29273;49.962;9.768;2023-03-11T02:23:45;98590.91;;;6.32;49.30
38780;BME280;29273;49.962;9.768;2023-03-11T02:26:22;98595.38;;;6.32;49.72
38780;BME280;29273;49.962;9.768;2023-03-11T02:28:51;98600.63;;;6.25;49.38
38780;BME280;29273;49.962;9.768;2023-03-11T02:31:18;98589.91;;;6.20;49.13
38780;BME280;29273;49.962;9.768;2023-03-11T02:33:45;98599.00;;;6.24;49.77
38780;BME280;29273;49.962;9.768;2023-03-11T02:36:30;98599.78;;;6.18;49.36
38780;BME280;29273;49.962;9.768;2023-03-11T02:38:56;98595.16;;;6.13;49.32
38780;BME280;29273;49.962;9.768;2023-03-11T02:41:22;98597.59;;;6.08;48.94
38780;BME280;29273;49.962;9.768;2023-03-11T02:43:48;98598.41;;;6.08;49.26
38780;BME280;29273;49.962;9.768;2023-03-11T02:46:16;98603.06;;;6.06;49.17
38780;BME280;29273;49.962;9.768;2023-03-11T02:48:43;98613.78;;;6.05;49.87
38780;BME280;29273;49.962;9.768;2023-03-11T02:51:10;98616.00;;;6.01;49.83
38780;BME280;29273;49.962;9.768;2023-03-11T02:53:42;98616.41;;;6.05;50.06
38780;BME280;29273;49.962;9.768;2023-03-11T02:56:09;98622.25;;;6.00;50.49
38780;BME280;29273;49.962;9.768;2023-03-11T02:58:34;98628.91;;;6.03;50.72
38780;BME280;29273;49.962;9.768;2023-03-11T03:01:00;98629.53;;;6.05;50.51
38780;BME280;29273;49.962;9.768;2023-03-11T03:03:26;98637.44;;;6.05;50.17
38780;BME280;29273;49.962;9.768;2023-03-11T03:05:51;98633.56;;;6.07;50.06
38780;BME280;29273;49.962;9.768;2023-03-11T03:08:17;98646.31;;;6.10;50.31
38780;BME280;29273;49.962;9.768;2023-03-11T03:10:42;98637.44;;;6.11;49.81
38780;BME280;29273;49.962;9.768;2023-03-11T03:13:08;98644.09;;;6.14;50.36
38780;BME280;29273;49.962;9.768;2023-03-11T03:15:33;98648.94;;;6.17;50.13
38780;BME280;29273;49.962;9.768;2023-03-11T03:17:59;98655.63;;;6.20;50.00
38780;BME280;29273;49.962;9.768;2023-03-11T03:20:25;98658.88;;;6.22;50.12
38780;BME280;29273;49.962;9.768;2023-03-11T03:22:54;98652.59;;;6.23;49.74
38780;BME280;29273;49.962;9.768;2023-03-11T03:25:24;98650.56;;;6.25;49.69
38780;BME280;29273;49.962;9.768;2023-03-11T03:27:50;98653.22;;;6.25;49.42
38780;BME280;29273;49.962;9.768;2023-03-11T03:30:16;98662.69;;;6.26;49.21
38780;BME280;29273;49.962;9.768;2023-03-11T03:32:43;98669.59;;;6.27;49.22
38780;BME280;29273;49.962;9.768;2023-03-11T03:35:11;98675.84;;;6.26;48.94
38780;BME280;29273;49.962;9.768;2023-03-11T03:38:03;98669.38;;;6.22;49.09
38780;BME280;29273;49.962;9.768;2023-03-11T03:40:28;98676.47;;;6.21;48.64
38780;BME280;29273;49.962;9.768;2023-03-11T03:42:56;98674.03;;;6.20;48.64
38780;BME280;29273;49.962;9.768;2023-03-11T03:45:23;98685.56;;;6.19;48.98
38780;BME280;29273;49.962;9.768;2023-03-11T03:47:51;98698.91;;;6.17;48.92
38780;BME280;29273;49.962;9.768;2023-03-11T03:50:18;98695.88;;;6.14;48.23
38780;BME280;29273;49.962;9.768;2023-03-11T03:52:46;98716.09;;;6.13;48.98
38780;BME280;29273;49.962;9.768;2023-03-11T03:55:12;98716.69;;;6.08;48.96
38780;BME280;29273;49.962;9.768;2023-03-11T03:57:38;98717.69;;;6.07;48.82
38780;BME280;29273;49.962;9.768;2023-03-11T04:00:05;98721.34;;;6.06;49.36
38780;BME280;29273;49.962;9.768;2023-03-11T04:02:39;98728.59;;;6.04;49.18
38780;BME280;29273;49.962;9.768;2023-03-11T04:05:07;98724.56;;;6.02;48.83
38780;BME280;29273;49.962;9.768;2023-03-11T04:07:34;98719.88;;;5.97;48.24
38780;BME280;29273;49.962;9.768;2023-03-11T04:10:00;98733.03;;;5.97;48.57
38780;BME280;29273;49.962;9.768;2023-03-11T04:12:27;98728.75;;;5.96;48.65
38780;BME280;29273;49.962;9.768;2023-03-11T04:14:53;98732.59;;;5.93;48.85
38780;BME280;29273;49.962;9.768;2023-03-11T04:17:18;98732.59;;;5.93;48.95
38780;BME280;29273;49.962;9.768;2023-03-11T04:19:45;98734.59;;;5.91;49.08
38780;BME280;29273;49.962;9.768;2023-03-11T04:22:11;98735.59;;;5.90;49.61
38780;BME280;29273;49.962;9.768;2023-03-11T04:24:37;98745.31;;;5.90;50.19
38780;BME280;29273;49.962;9.768;2023-03-11T04:27:03;98744.25;;;5.84;49.23
38780;BME280;29273;49.962;9.768;2023-03-11T04:29:30;98738.00;;;5.85;49.64
38780;BME280;29273;49.962;9.768;2023-03-11T04:31:56;98742.66;;;5.83;49.96
38780;BME280;29273;49.962;9.768;2023-03-11T04:34:21;98736.81;;;5.81;49.76
38780;BME280;29273;49.962;9.768;2023-03-11T04:36:51;98737.22;;;5.85;50.23
38780;BME280;29273;49.962;9.768;2023-03-11T04:39:20;98742.44;;;5.78;49.77
38780;BME280;29273;49.962;9.768;2023-03-11T04:41:46;98744.88;;;5.80;49.96
38780;BME280;29273;49.962;9.768;2023-03-11T04:44:16;98744.88;;;5.80;50.17
38780;BME280;29273;49.962;9.768;2023-03-11T04:46:42;98750.94;;;5.80;50.29
38780;BME280;29273;49.962;9.768;2023-03-11T04:49:08;98753.38;;;5.82;50.27
38780;BME280;29273;49.962;9.768;2023-03-11T04:51:35;98748.13;;;5.82;50.23
38780;BME280;29273;49.962;9.768;2023-03-11T04:54:00;98748.91;;;5.82;50.38
38780;BME280;29273;49.962;9.768;2023-03-11T04:56:28;98761.06;;;5.83;50.58
38780;BME280;29273;49.962;9.768;2023-03-11T04:58:53;98763.69;;;5.83;50.33
38780;BME280;29273;49.962;9.768;2023-03-11T05:01:21;98769.94;;;5.82;50.21
38780;BME280;29273;49.962;9.768;2023-03-11T05:03:46;98773.34;;;5.83;50.43
38780;BME280;29273;49.962;9.768;2023-03-11T05:06:12;98759.81;;;5.79;50.20
38780;BME280;29273;49.962;9.768;2023-03-11T05:08:38;98773.97;;;5.78;50.36
38780;BME280;29273;49.962;9.768;2023-03-11T05:11:04;98767.28;;;5.75;50.34
38780;BME280;29273;49.962;9.768;2023-03-11T05:13:30;98776.38;;;5.73;50.51
38780;BME280;29273;49.962;9.768;2023-03-11T05:15:56;98784.44;;;5.71;50.84
38780;BME280;29273;49.962;9.768;2023-03-11T05:18:21;98789.25;;;5.68;50.82
38780;BME280;29273;49.962;9.768;2023-03-11T05:20:48;98804.22;;;5.67;50.47
38780;BME280;29273;49.962;9.768;2023-03-11T05:23:15;98807.03;;;5.66;50.70
38780;BME280;29273;49.962;9.768;2023-03-11T05:25:40;98809.66;;;5.66;50.70
38780;BME280;29273;49.962;9.768;2023-03-11T05:28:07;98817.53;;;5.66;50.85
38780;BME280;29273;49.962;9.768;2023-03-11T05:30:36;98822.00;;;5.65;50.96
38780;BME280;29273;49.962;9.768;2023-03-11T05:33:02;98822.59;;;5.67;51.08
38780;BME280;29273;49.962;9.768;2023-03-11T05:35:28;98830.28;;;5.69;51.10
38780;BME280;29273;49.962;9.768;2023-03-11T05:37:54;98822.41;;;5.69;50.74
38780;BME280;29273;49.962;9.768;2023-03-11T05:40:21;98827.47;;;5.70;51.01
38780;BME280;29273;49.962;9.768;2023-03-11T05:42:47;98823.03;;;5.71;50.69
38780;BME280;29273;49.962;9.768;2023-03-11T05:45:14;98825.47;;;5.72;50.75
38780;BME280;29273;49.962;9.768;2023-03-11T05:47:42;98824.03;;;5.70;50.79
38780;BME280;29273;49.962;9.768;2023-03-11T05:50:11;98830.53;;;5.74;50.91
38780;BME280;29273;49.962;9.768;2023-03-11T05:52:37;98834.56;;;5.70;50.98
38780;BME280;29273;49.962;9.768;2023-03-11T05:55:03;98833.91;;;5.68;51.12
38780;BME280;29273;49.962;9.768;2023-03-11T05:57:30;98843.63;;;5.67;51.38
38780;BME280;29273;49.962;9.768;2023-03-11T05:59:56;98844.84;;;5.65;51.20
38780;BME280;29273;49.962;9.768;2023-03-11T06:02:23;98842.59;;;5.62;50.94
38780;BME280;29273;49.962;9.768;2023-03-11T06:04:48;98841.97;;;5.60;50.92
38780;BME280;29273;49.962;9.768;2023-03-11T06:07:14;98841.34;;;5.57;51.25
38780;BME280;29273;49.962;9.768;2023-03-11T06:09:43;98841.34;;;5.57;51.28
38780;BME280;29273;49.962;9.768;2023-03-11T06:12:12;98847.41;;;5.58;51.51
38780;BME280;29273;49.962;9.768;2023-03-11T06:14:49;98846.41;;;5.59;51.86
38780;BME280;29273;49.962;9.768;2023-03-11T06:17:14;98849.63;;;5.61;51.72
38780;BME280;29273;49.962;9.768;2023-03-11T06:19:40;98842.41;;;5.63;51.60
38780;BME280;29273;49.962;9.768;2023-03-11T06:22:08;98849.06;;;5.66;51.75
38780;BME280;29273;49.962;9.768;2023-03-11T06:24:33;98855.94;;;5.67;51.77
38780;BME280;29273;49.962;9.768;2023-03-11T06:26:59;98857.78;;;5.66;51.95
38780;BME280;29273;49.962;9.768;2023-03-11T06:29:27;98867.88;;;5.69;51.94
38780;BME280;29273;49.962;9.768;2023-03-11T06:31:53;98868.50;;;5.71;51.83
38780;BME280;29273;49.962;9.768;2023-03-11T06:34:19;98868.13;;;5.74;51.76
38780;BME280;29273;49.962;9.768;2023-03-11T06:36:45;98866.31;;;5.75;51.70
38780;BME280;29273;49.962;9.768;2023-03-11T06:39:14;98882.50;;;5.79;51.48
38780;BME280;29273;49.962;9.768;2023-03-11T06:41:41;98880.66;;;5.79;51.74
38780;BME280;29273;49.962;9.768;2023-03-11T06:44:09;98882.91;;;5.82;51.74
38780;BME280;29273;49.962;9.768;2023-03-11T06:46:36;98893.22;;;5.84;51.32
38780;BME280;29273;49.962;9.768;2023-03-11T06:49:01;98898.50;;;5.84;51.45
38780;BME280;29273;49.962;9.768;2023-03-11T06:51:28;98906.78;;;5.87;51.25
38780;BME280;29273;49.962;9.768;2023-03-11T06:53:54;98910.88;;;5.90;51.33
38780;BME280;29273;49.962;9.768;2023-03-11T06:56:21;98911.28;;;5.93;51.20
38780;BME280;29273;49.962;9.768;2023-03-11T06:58:52;98917.34;;;5.94;51.52
38780;BME280;29273;49.962;9.768;2023-03-11T07:01:21;98911.34;;;6.00;51.62
38780;BME280;29273;49.962;9.768;2023-03-11T07:03:48;98914.59;;;6.02;51.28
38780;BME280;29273;49.962;9.768;2023-03-11T07:06:18;98914.81;;;6.07;51.32
38780;BME280;29273;49.962;9.768;2023-03-11T07:08:46;98928.78;;;6.08;51.26
38780;BME280;29273;49.962;9.768;2023-03-11T07:11:21;98924.94;;;6.10;51.10
38780;BME280;29273;49.962;9.768;2023-03-11T07:13:49;98933.03;;;6.09;51.04
38780;BME280;29273;49.962;9.768;2023-03-11T07:16:26;98930.00;;;6.12;51.11
38780;BME280;29273;49.962;9.768;2023-03-11T07:18:58;98939.91;;;6.10;50.91
38780;BME280;29273;49.962;9.768;2023-03-11T07:21:28;98939.09;;;6.09;51.00
38780;BME280;29273;49.962;9.768;2023-03-11T07:23:56;98944.34;;;6.09;50.82
38780;BME280;29273;49.962;9.768;2023-03-11T07:26:22;98942.75;;;6.08;50.80
38780;BME280;29273;49.962;9.768;2023-03-11T07:28:48;98948.19;;;6.07;50.24
38780;BME280;29273;49.962;9.768;2023-03-11T07:31:17;98957.50;;;6.09;50.65
38780;BME280;29273;49.962;9.768;2023-03-11T07:33:43;98968.22;;;6.08;50.36
38780;BME280;29273;49.962;9.768;2023-03-11T07:36:12;98960.13;;;6.09;50.22
38780;BME280;29273;49.962;9.768;2023-03-11T07:38:38;98970.03;;;6.07;49.99
38780;BME280;29273;49.962;9.768;2023-03-11T07:41:04;98972.47;;;6.09;49.96
38780;BME280;29273;49.962;9.768;2023-03-11T07:43:29;98989.69;;;6.11;49.55
38780;BME280;29273;49.962;9.768;2023-03-11T07:46:15;98983.00;;;6.16;50.51
38780;BME280;29273;49.962;9.768;2023-03-11T07:48:43;98981.84;;;6.18;49.39
38780;BME280;29273;49.962;9.768;2023-03-11T07:51:12;98982.88;;;6.24;49.65
38780;BME280;29273;49.962;9.768;2023-03-11T07:53:38;98984.50;;;6.25;49.15
38780;BME280;29273;49.962;9.768;2023-03-11T07:56:05;98993.41;;;6.30;49.36
38780;BME280;29273;49.962;9.768;2023-03-11T07:58:32;98985.34;;;6.32;48.71
38780;BME280;29273;49.962;9.768;2023-03-11T08:01:03;98997.16;;;6.43;49.54
38780;BME280;29273;49.962;9.768;2023-03-11T08:03:29;99011.41;;;6.27;50.60
38780;BME280;29273;49.962;9.768;2023-03-11T08:05:54;99005.03;;;6.43;49.69
38780;BME280;29273;49.962;9.768;2023-03-11T08:08:20;99005.25;;;6.48;49.09
38780;BME280;29273;49.962;9.768;2023-03-11T08:10:46;99007.09;;;6.54;49.39
38780;BME280;29273;49.962;9.768;2023-03-11T08:13:11;99018.88;;;6.58;49.35
38780;BME280;29273;49.962;9.768;2023-03-11T08:15:37;99020.09;;;6.62;48.99
38780;BME280;29273;49.962;9.768;2023-03-11T08:18:03;99024.56;;;6.69;48.43
38780;BME280;29273;49.962;9.768;2023-03-11T08:20:29;99023.16;;;6.73;48.13
38780;BME280;29273;49.962;9.768;2023-03-11T08:22:54;99027.03;;;6.77;48.03
38780;BME280;29273;49.962;9.768;2023-03-11T08:25:20;99018.94;;;6.78;47.29
38780;BME280;29273;49.962;9.768;2023-03-11T08:27:45;99023.84;;;6.81;47.99
38780;BME280;29273;49.962;9.768;2023-03-11T08:30:11;99031.34;;;6.84;47.54
38780;BME280;29273;49.962;9.768;2023-03-11T08:32:37;99040.66;;;6.87;46.91
38780;BME280;29273;49.962;9.768;2023-03-11T08:35:02;99042.28;;;6.88;46.52
38780;BME280;29273;49.962;9.768;2023-03-11T08:37:28;99044.06;;;6.88;46.13
38780;BME280;29273;49.962;9.768;2023-03-11T08:39:54;99054.22;;;6.91;47.03
38780;BME280;29273;49.962;9.768;2023-03-11T08:42:20;99048.16;;;6.90;46.06
38780;BME280;29273;49.962;9.768;2023-03-11T08:44:45;99050.19;;;6.88;45.13
38780;BME280;29273;49.962;9.768;2023-03-11T08:47:11;99050.19;;;6.88;45.64
38780;BME280;29273;49.962;9.768;2023-03-11T08:49:36;99048.97;;;6.91;46.33
38780;BME280;29273;49.962;9.768;2023-03-11T08:52:02;99054.22;;;6.91;45.97
38780;BME280;29273;49.962;9.768;2023-03-11T08:54:27;99062.72;;;6.93;46.24
38780;BME280;29273;49.962;9.768;2023-03-11T08:56:53;99068.63;;;6.95;46.34
38780;BME280;29273;49.962;9.768;2023-03-11T08:59:18;99069.03;;;6.98;46.39
38780;BME280;29273;49.962;9.768;2023-03-11T09:01:44;99071.28;;;7.01;45.72
38780;BME280;29273;49.962;9.768;2023-03-11T09:04:11;99078.81;;;7.04;45.48
38780;BME280;29273;49.962;9.768;2023-03-11T09:06:41;99090.97;;;7.12;46.62
38780;BME280;29273;49.962;9.768;2023-03-11T09:09:06;99093.78;;;7.11;45.14
38780;BME280;29273;49.962;9.768;2023-03-11T09:11:32;99096.22;;;7.12;44.72
38780;BME280;29273;49.962;9.768;2023-03-11T09:13:57;99089.16;;;7.13;44.37
38780;BME280;29273;49.962;9.768;2023-03-11T09:16:23;99098.66;;;7.14;44.71
38780;BME280;29273;49.962;9.768;2023-03-11T09:18:49;99093.41;;;7.14;45.05
38780;BME280;29273;49.962;9.768;2023-03-11T09:21:14;99100.50;;;7.13;45.93
38780;BME280;29273;49.962;9.768;2023-03-11T09:23:40;99104.31;;;7.11;45.23
38780;BME280;29273;49.962;9.768;2023-03-11T09:26:05;99110.81;;;7.08;43.80
38780;BME280;29273;49.962;9.768;2023-03-11T09:28:31;99109.38;;;7.06;43.84
38780;BME280;29273;49.962;9.768;2023-03-11T09:30:56;99111.38;;;7.03;43.98
38780;BME280;29273;49.962;9.768;2023-03-11T09:33:22;99107.50;;;6.99;44.03
38780;BME280;29273;49.962;9.768;2023-03-11T09:35:48;99107.72;;;6.98;44.71
38780;BME280;29273;49.962;9.768;2023-03-11T09:38:13;99098.00;;;6.98;44.62
38780;BME280;29273;49.962;9.768;2023-03-11T09:43:38;99103.13;;;7.13;46.55
38780;BME280;29273;49.962;9.768;2023-03-11T09:49:01;99110.06;;;7.28;46.67
38780;BME280;29273;49.962;9.768;2023-03-11T09:51:35;99123.25;;;7.34;45.73
38780;BME280;29273;49.962;9.768;2023-03-11T09:54:04;99113.53;;;7.35;45.09
38780;BME280;29273;49.962;9.768;2023-03-11T09:56:30;99107.06;;;7.37;45.04
38780;BME280;29273;49.962;9.768;2023-03-11T09:59:07;99115.63;;;7.46;46.17
38780;BME280;29273;49.962;9.768;2023-03-11T10:01:40;99118.06;;;7.48;45.89
38780;BME280;29273;49.962;9.768;2023-03-11T10:06:41;99118.84;;;7.48;45.55
38780;BME280;29273;49.962;9.768;2023-03-11T10:14:35;99122.91;;;7.51;44.69
38780;BME280;29273;49.962;9.768;2023-03-11T10:20:21;99127.59;;;7.55;45.20
38780;BME280;29273;49.962;9.768;2023-03-11T10:28:35;99130.03;;;7.57;45.24
38780;BME280;29273;49.962;9.768;2023-03-11T10:31:20;99130.22;;;7.55;45.63
38780;BME280;29273;49.962;9.768;2023-03-11T10:36:56;99135.69;;;7.60;44.87
38780;BME280;29273;49.962;9.768;2023-03-11T10:39:24;99140.38;;;7.58;44.40
38780;BME280;29273;49.962;9.768;2023-03-11T10:41:54;99137.34;;;7.62;44.91
38780;BME280;29273;49.962;9.768;2023-03-11T10:44:28;99150.72;;;7.60;44.93
38780;BME280;29273;49.962;9.768;2023-03-11T10:46:56;99152.09;;;7.49;42.04
38780;BME280;29273;49.962;9.768;2023-03-11T10:49:21;99147.84;;;7.48;43.36
38780;BME280;29273;49.962;9.768;2023-03-11T10:51:49;99145.41;;;7.47;43.31
38780;BME280;29273;49.962;9.768;2023-03-11T10:54:24;99149.66;;;7.48;44.86
38780;BME280;29273;49.962;9.768;2023-03-11T10:56:56;99148.22;;;7.45;44.03
38780;BME280;29273;49.962;9.768;2023-03-11T11:02:30;99139.06;;;7.41;45.44
38780;BME280;29273;49.962;9.768;2023-03-11T11:07:41;99140.91;;;7.40;45.13
38780;BME280;29273;49.962;9.768;2023-03-11T11:10:25;99151.66;;;7.46;45.62
38780;BME280;29273;49.962;9.768;2023-03-11T11:13:00;99140.53;;;7.44;44.66
38780;BME280;29273;49.962;9.768;2023-03-11T11:15:31;99146.81;;;7.49;44.84
38780;BME280;29273;49.962;9.768;2023-03-11T11:18:03;99143.19;;;7.57;45.19
38780;BME280;29273;49.962;9.768;2023-03-11T11:20:30;99152.94;;;7.56;44.79
38780;BME280;29273;49.962;9.768;2023-03-11T11:22:59;99148.69;;;7.62;44.77
38780;BME280;29273;49.962;9.768;2023-03-11T11:25:34;99151.56;;;7.74;45.43
38780;BME280;29273;49.962;9.768;2023-03-11T11:28:18;99150.75;;;7.73;44.94
38780;BME280;29273;49.962;9.768;2023-03-11T11:35:51;99149.75;;;7.74;43.78
38780;BME280;29273;49.962;9.768;2023-03-11T11:38:21;99153.41;;;7.80;44.19
38780;BME280;29273;49.962;9.768;2023-03-11T11:40:50;99147.31;;;7.80;43.96
38780;BME280;29273;49.962;9.768;2023-03-11T11:43:32;99146.09;;;7.89;45.58
38780;BME280;29273;49.962;9.768;2023-03-11T11:46:04;99149.97;;;7.93;44.95
38780;BME280;29273;49.962;9.768;2023-03-11T11:51:27;99147.56;;;7.98;43.79
38780;BME280;29273;49.962;9.768;2023-03-11T11:56:42;99149.59;;;8.09;43.11
38780;BME280;29273;49.962;9.768;2023-03-11T11:59:20;99151.81;;;8.19;45.20
38780;BME280;29273;49.962;9.768;2023-03-11T12:05:09;99151.41;;;8.22;42.94
38780;BME280;29273;49.962;9.768;2023-03-11T12:10:46;99158.53;;;8.22;44.62
38780;BME280;29273;49.962;9.768;2023-03-11T12:13:20;99157.72;;;8.28;43.88
38780;BME280;29273;49.962;9.768;2023-03-11T12:16:14;99161.16;;;8.28;43.90
38780;BME280;29273;49.962;9.768;2023-03-11T12:27:19;99163.59;;;8.23;44.13
38780;BME280;29273;49.962;9.768;2023-03-11T12:29:51;99158.94;;;8.25;43.82
38780;BME280;29273;49.962;9.768;2023-03-11T12:35:01;99159.13;;;8.30;44.00
38780;BME280;29273;49.962;9.768;2023-03-11T12:37:29;99156.91;;;8.27;42.32
38780;BME280;29273;49.962;9.768;2023-03-11T12:39:55;99164.81;;;8.27;42.16
38780;BME280;29273;49.962;9.768;2023-03-11T12:42:21;99160.97;;;8.30;42.52
38780;BME280;29273;49.962;9.768;2023-03-11T12:44:49;99164.41;;;8.30;42.07
38780;BME280;29273;49.962;9.768;2023-03-11T12:47:23;99163.81;;;8.35;42.10
38780;BME280;29273;49.962;9.768;2023-03-11T12:49:51;99153.25;;;8.35;40.95
38780;BME280;29273;49.962;9.768;2023-03-11T12:52:24;99157.09;;;8.39;42.97
38780;BME280;29273;49.962;9.768;2023-03-11T12:57:49;99164.22;;;8.32;44.06
38780;BME280;29273;49.962;9.768;2023-03-11T13:03:15;99160.97;;;8.30;43.59
38780;BME280;29273;49.962;9.768;2023-03-11T13:06:30;99169.09;;;8.28;44.34
38780;BME280;29273;49.962;9.768;2023-03-11T13:09:00;99157.94;;;8.26;42.15
38780;BME280;29273;49.962;9.768;2023-03-11T13:14:22;99163.59;;;8.30;43.99
38780;BME280;29273;49.962;9.768;2023-03-11T13:16:50;99164.41;;;8.30;42.92
38780;BME280;29273;49.962;9.768;2023-03-11T13:21:51;99173.38;;;8.36;41.97
38780;BME280;29273;49.962;9.768;2023-03-11T13:27:00;99162.41;;;8.46;43.59
38780;BME280;29273;49.962;9.768;2023-03-11T13:35:19;99165.28;;;8.58;44.90
38780;BME280;29273;49.962;9.768;2023-03-11T13:38:19;99170.31;;;8.59;45.24
38780;BME280;29273;49.962;9.768;2023-03-11T13:40:48;99167.66;;;8.66;42.97
38780;BME280;29273;49.962;9.768;2023-03-11T13:43:21;99162.59;;;8.78;43.98
38780;BME280;29273;49.962;9.768;2023-03-11T13:45:57;99170.50;;;8.84;44.27
38780;BME280;29273;49.962;9.768;2023-03-11T13:48:31;99164.00;;;8.87;42.83
38780;BME280;29273;49.962;9.768;2023-03-11T13:51:03;99174.56;;;8.87;42.55
38780;BME280;29273;49.962;9.768;2023-03-11T13:53:41;99181.47;;;8.95;43.98
38780;BME280;29273;49.962;9.768;2023-03-11T13:56:22;99188.78;;;8.99;43.86
38780;BME280;29273;49.962;9.768;2023-03-11T13:58:50;99188.97;;;8.98;42.17
38780;BME280;29273;49.962;9.768;2023-03-11T14:01:16;99189.56;;;9.00;41.33
38780;BME280;29273;49.962;9.768;2023-03-11T14:03:44;99184.69;;;9.03;42.17
38780;BME280;29273;49.962;9.768;2023-03-11T14:06:17;99185.88;;;9.07;43.21
38780;BME280;29273;49.962;9.768;2023-03-11T14:08:55;99196.25;;;9.09;43.27
38780;BME280;29273;49.962;9.768;2023-03-11T14:11:26;99208.66;;;9.08;42.33
38780;BME280;29273;49.962;9.768;2023-03-11T14:13:53;99216.38;;;9.03;40.53
38780;BME280;29273;49.962;9.768;2023-03-11T14:16:22;99222.66;;;9.09;41.23
38780;BME280;29273;49.962;9.768;2023-03-11T14:21:31;99216.63;;;8.82;43.23
38780;BME280;29273;49.962;9.768;2023-03-11T14:23:57;99222.50;;;8.91;40.65
38780;BME280;29273;49.962;9.768;2023-03-11T14:26:33;99231.25;;;8.91;41.62
38780;BME280;29273;49.962;9.768;2023-03-11T14:29:09;99226.56;;;8.86;42.32
38780;BME280;29273;49.962;9.768;2023-03-11T14:31:37;99216.81;;;8.74;39.96
38780;BME280;29273;49.962;9.768;2023-03-11T14:34:13;99219.88;;;8.70;41.17
38780;BME280;29273;49.962;9.768;2023-03-11T14:36:53;99218.06;;;8.64;40.69
38780;BME280;29273;49.962;9.768;2023-03-11T14:39:30;99230.22;;;8.59;41.81